createdAt,value
2019-02-23T00:01:02.648Z,99.90
2019-02-23T00:06:09.640Z,99.90
2019-02-23T00:11:14.972Z,99.90
2019-02-23T00:16:20.444Z,99.90
2019-02-23T00:21:25.751Z,99.90
2019-02-23T00:26:31.110Z,99.90
2019-02-23T00:31:36.359Z,99.90
2019-02-23T00:36:41.932Z,99.90
2019-02-23T00:41:47.890Z,99.90
2019-02-23T00:46:53.238Z,99.90
2019-02-23T00:51:58.552Z,99.90
2019-02-23T00:57:03.898Z,99.90
2019-02-23T01:02:09.243Z,99.90
2019-02-23T01:07:14.635Z,99.90
2019-02-23T01:12:19.950Z,99.90
2019-02-23T01:17:25.206Z,99.90
2019-02-23T01:22:30.721Z,99.90
2019-02-23T01:27:36.081Z,99.90
2019-02-23T01:32:41.515Z,99.90
2019-02-23T01:37:46.863Z,99.90
2019-02-23T01:42:52.523Z,99.90
2019-02-23T01:47:57.908Z,99.90
2019-02-23T01:53:03.224Z,99.90
2019-02-23T01:58:08.571Z,99.90
2019-02-23T02:03:13.969Z,99.90
2019-02-23T02:08:19.459Z,99.90
2019-02-23T02:13:24.791Z,99.90
2019-02-23T02:18:30.118Z,99.90
2019-02-23T02:23:36.432Z,99.90
2019-02-23T02:28:41.867Z,99.90
2019-02-23T02:34:08.622Z,99.90
2019-02-23T02:39:15.607Z,99.90
2019-02-23T02:44:20.990Z,99.90
2019-02-23T02:49:26.427Z,99.90
2019-02-23T02:54:31.763Z,99.90
2019-02-23T02:59:37.136Z,99.90
2019-02-23T03:04:42.463Z,99.90
2019-02-23T03:09:47.789Z,99.90
2019-02-23T03:14:53.108Z,99.90
2019-02-23T03:19:58.438Z,99.90
2019-02-23T03:25:03.771Z,99.90
2019-02-23T03:30:10.612Z,99.90
2019-02-23T03:35:15.863Z,99.90
2019-02-23T03:40:21.174Z,99.90
2019-02-23T03:45:26.474Z,99.90
2019-02-23T03:50:31.775Z,99.90
2019-02-23T03:55:37.576Z,99.90
2019-02-23T04:00:42.886Z,99.90
2019-02-23T04:05:48.211Z,99.90
2019-02-23T04:10:53.507Z,99.90
2019-02-23T04:15:58.815Z,99.90
2019-02-23T04:21:04.165Z,99.90
2019-02-23T04:26:09.479Z,99.90
2019-02-23T04:31:14.892Z,99.90
2019-02-23T04:36:20.195Z,99.90
2019-02-23T04:41:26.563Z,99.90
2019-02-23T04:46:31.858Z,99.90
2019-02-23T04:51:38.253Z,99.90
2019-02-23T04:56:43.556Z,99.90
2019-02-23T05:01:48.990Z,99.90
2019-02-23T05:06:54.300Z,99.90
2019-02-23T05:11:59.607Z,99.90
2019-02-23T05:17:04.985Z,99.90
2019-02-23T05:22:10.281Z,99.90
2019-02-23T05:27:15.594Z,99.90
2019-02-23T05:32:20.916Z,99.90
2019-02-23T05:37:26.312Z,99.90
2019-02-23T05:42:31.639Z,99.90
2019-02-23T05:47:36.942Z,99.90
2019-02-23T05:52:42.255Z,99.90
2019-02-23T05:57:47.571Z,99.90
2019-02-23T06:02:52.963Z,99.90
2019-02-23T06:07:58.264Z,99.90
2019-02-23T06:13:03.567Z,99.90
2019-02-23T06:18:08.862Z,99.90
2019-02-23T06:23:15.279Z,99.90
2019-02-23T06:28:20.610Z,99.90
2019-02-23T06:33:25.929Z,99.90
2019-02-23T06:38:31.240Z,99.90
2019-02-23T06:43:36.549Z,99.90
2019-02-23T06:48:41.863Z,99.90
2019-02-23T06:53:47.194Z,99.90
2019-02-23T06:58:52.588Z,99.90
2019-02-23T07:03:59.096Z,99.90
2019-02-23T07:09:05.339Z,99.90
2019-02-23T07:14:10.827Z,99.90
2019-02-23T07:19:16.139Z,99.90
2019-02-23T07:24:21.466Z,99.90
2019-02-23T07:29:26.904Z,99.90
2019-02-23T07:34:32.282Z,99.90
2019-02-23T07:39:37.622Z,99.90
2019-02-23T07:44:43.043Z,99.90
2019-02-23T07:49:48.519Z,99.90
2019-02-23T07:54:53.855Z,99.90
2019-02-23T07:59:59.208Z,99.90
2019-02-23T08:05:04.630Z,99.90
2019-02-23T08:10:10.567Z,99.90
2019-02-23T08:15:15.951Z,99.90
2019-02-23T08:20:21.763Z,99.90
2019-02-23T08:25:27.164Z,99.90
2019-02-23T08:30:32.488Z,99.90
2019-02-23T08:35:37.851Z,99.90
2019-02-23T08:40:43.146Z,99.90
2019-02-23T08:45:48.482Z,99.90
2019-02-23T08:50:53.800Z,99.90
2019-02-23T08:55:59.379Z,99.90
2019-02-23T09:01:04.995Z,99.90
2019-02-23T09:06:10.378Z,99.90
2019-02-23T09:11:15.683Z,99.90
2019-02-23T09:16:21.051Z,99.90
2019-02-23T09:21:27.221Z,99.90
2019-02-23T09:26:33.628Z,99.90
2019-02-23T09:31:38.940Z,99.90
2019-02-23T09:36:46.192Z,99.90
2019-02-23T09:41:51.379Z,99.90
2019-02-23T09:46:56.724Z,98.20
2019-02-23T09:52:02.004Z,99.00
2019-02-23T09:57:09.118Z,96.90
2019-02-23T10:02:14.751Z,95.20
2019-02-23T10:07:20.090Z,93.50
2019-02-23T10:12:25.552Z,93.30
2019-02-23T10:17:30.914Z,89.00
2019-02-23T10:22:39.500Z,82.70
2019-02-23T10:27:44.876Z,80.10
2019-02-23T10:32:50.329Z,72.90
2019-02-23T10:37:55.854Z,70.10
2019-02-23T10:43:01.913Z,63.30
2019-02-23T10:48:07.770Z,60.60
2019-02-23T10:53:13.179Z,58.00
2019-02-23T10:58:19.614Z,55.40
2019-02-23T11:03:25.836Z,53.20
2019-02-23T11:08:31.131Z,53.10
2019-02-23T11:13:37.418Z,49.50
2019-02-23T11:18:42.682Z,49.10
2019-02-23T11:23:48.092Z,44.70
2019-02-23T11:28:53.516Z,46.10
2019-02-23T11:33:58.950Z,45.00
2019-02-23T11:39:04.795Z,40.60
2019-02-23T11:44:11.905Z,43.60
2019-02-23T11:49:20.467Z,40.70
2019-02-23T11:54:27.839Z,39.40
2019-02-23T11:59:34.222Z,38.20
2019-02-23T12:04:39.912Z,38.00
2019-02-23T12:09:45.897Z,39.60
2019-02-23T12:14:51.796Z,43.80
2019-02-23T12:19:57.695Z,45.40
2019-02-23T12:25:04.212Z,43.30
2019-02-23T12:30:09.693Z,42.40
2019-02-23T12:35:15.828Z,37.40
2019-02-23T12:40:23.085Z,39.00
2019-02-23T12:45:29.986Z,36.20
2019-02-23T12:50:38.377Z,35.60
2019-02-23T12:55:43.904Z,35.80
2019-02-23T13:00:50.018Z,36.30
2019-02-23T13:05:58.461Z,35.30
2019-02-23T13:11:04.967Z,34.70
2019-02-23T13:16:26.679Z,34.40
2019-02-23T13:21:58.688Z,33.90
2019-02-23T13:27:35.839Z,31.70
2019-02-23T13:33:16.435Z,32.00
2019-02-23T13:38:53.009Z,34.20
2019-02-23T13:44:36.177Z,32.80
2019-02-23T13:50:38.498Z,33.20
2019-02-23T13:56:16.498Z,35.80
2019-02-23T14:02:02.611Z,37.20
2019-02-23T14:07:57.891Z,35.70
2019-02-23T14:13:26.127Z,37.70
2019-02-23T14:18:49.449Z,36.60
2019-02-23T14:24:35.913Z,37.80
2019-02-23T14:30:09.750Z,39.10
2019-02-23T14:35:50.664Z,40.40
2019-02-23T14:41:23.573Z,41.30
2019-02-23T14:47:08.931Z,40.30
2019-02-23T14:52:57.296Z,40.80
2019-02-23T14:58:34.324Z,40.00
2019-02-23T15:04:23.279Z,40.30
2019-02-23T15:10:25.155Z,38.60
2019-02-23T15:16:17.470Z,39.60
2019-02-23T15:22:05.361Z,39.20
2019-02-23T15:27:49.974Z,40.00
2019-02-23T15:33:44.092Z,40.20
2019-02-23T15:39:45.749Z,42.20
2019-02-23T15:45:31.719Z,44.80
2019-02-23T15:50:37.199Z,47.20
2019-02-23T15:55:42.733Z,49.10
2019-02-23T16:00:48.311Z,47.50
2019-02-23T16:05:53.747Z,49.80
2019-02-23T16:10:59.419Z,52.20
2019-02-23T16:16:05.081Z,54.40
2019-02-23T16:21:10.736Z,54.00
2019-02-23T16:26:16.728Z,55.70
2019-02-23T16:31:22.353Z,57.60
2019-02-23T16:36:30.284Z,59.00
2019-02-23T16:41:38.758Z,59.70
2019-02-23T16:46:46.424Z,60.50
2019-02-23T16:51:51.843Z,61.50
2019-02-23T16:56:57.462Z,62.80
2019-02-23T17:02:02.970Z,65.30
2019-02-23T17:07:08.776Z,63.70
2019-02-23T17:12:14.296Z,63.20
2019-02-23T17:17:19.646Z,63.30
2019-02-23T17:22:25.140Z,65.00
2019-02-23T17:27:36.190Z,64.10
2019-02-23T17:32:38.459Z,63.70
2019-02-23T17:37:45.337Z,62.50
2019-02-23T17:42:53.711Z,60.50
2019-02-23T17:48:00.963Z,61.00
2019-02-23T17:53:07.826Z,62.20
2019-02-23T17:58:14.109Z,60.20
2019-02-23T18:03:21.392Z,61.30
2019-02-23T18:08:28.436Z,61.90
2019-02-23T18:13:35.002Z,63.00
2019-02-23T18:18:41.800Z,63.70
2019-02-23T18:23:48.446Z,65.30
2019-02-23T18:28:56.148Z,66.50
2019-02-23T18:34:04.065Z,67.90
2019-02-23T18:39:11.249Z,70.30
2019-02-23T18:44:17.894Z,71.30
2019-02-23T18:49:25.008Z,71.60
2019-02-23T18:54:31.376Z,74.00
2019-02-23T18:59:38.192Z,73.90
2019-02-23T19:04:44.897Z,75.30
2019-02-23T19:09:50.825Z,77.50
2019-02-23T19:14:56.543Z,86.50
2019-02-23T19:20:02.121Z,92.40
2019-02-23T19:25:09.766Z,95.10
2019-02-23T19:30:16.927Z,97.30
2019-02-23T19:35:23.457Z,99.50
2019-02-23T19:40:29.798Z,99.90
2019-02-23T19:45:36.692Z,99.90
2019-02-23T19:50:56.886Z,99.90
2019-02-23T19:56:04.139Z,99.90
2019-02-23T20:01:10.766Z,99.90
2019-02-23T20:06:17.337Z,99.90
2019-02-23T20:11:23.249Z,99.90
2019-02-23T20:16:29.884Z,99.90
2019-02-23T20:21:36.610Z,99.90
2019-02-23T20:26:42.656Z,99.90
2019-02-23T20:31:49.169Z,99.90
2019-02-23T20:36:56.251Z,99.90
2019-02-23T20:42:03.342Z,99.90
2019-02-23T20:47:10.446Z,99.90
2019-02-23T20:52:17.150Z,99.90
2019-02-23T20:57:24.829Z,99.90
2019-02-23T21:02:31.560Z,99.90
2019-02-23T21:07:38.371Z,99.90
2019-02-23T21:12:45.263Z,99.90
2019-02-23T21:17:53.015Z,99.90
2019-02-23T21:23:00.912Z,99.90
2019-02-23T21:28:07.937Z,99.90
2019-02-23T21:33:17.837Z,99.90
2019-02-23T21:38:24.874Z,99.90
2019-02-23T21:43:33.719Z,99.90
2019-02-23T21:48:42.340Z,99.90
2019-02-23T21:53:49.806Z,99.90
2019-02-23T21:58:57.511Z,99.90
2019-02-23T22:04:05.634Z,99.90
2019-02-23T22:09:12.619Z,99.90
2019-02-23T22:14:19.629Z,99.90
2019-02-23T22:19:28.132Z,99.90
2019-02-23T22:24:36.794Z,99.90
2019-02-23T22:29:43.789Z,99.90
2019-02-23T22:34:50.307Z,99.90
2019-02-23T22:39:55.936Z,99.90
2019-02-23T22:45:01.486Z,99.90
2019-02-23T22:50:07.210Z,99.90
2019-02-23T22:55:12.647Z,99.90
2019-02-23T23:00:24.450Z,99.90
2019-02-23T23:05:31.554Z,99.90
2019-02-23T23:10:36.880Z,99.90
2019-02-23T23:15:42.235Z,99.90
2019-02-23T23:20:47.588Z,99.90
2019-02-23T23:25:52.926Z,99.90
2019-02-23T23:30:58.229Z,99.90
2019-02-23T23:36:03.624Z,99.90
2019-02-23T23:41:08.951Z,99.90
2019-02-23T23:46:14.402Z,99.90
2019-02-23T23:51:19.690Z,99.90
2019-02-23T23:56:25.036Z,99.90
